La Sardane — FO4883 — position and weather

sailwx.info

Track history (hours):
 
Tides and Currents Weather Stations Pressure Air Temp Water Temp Dewpoint Dewpoint Depression Visibility Wind Speed Wind Dir Waves Ship Positions

La Sardane

Last reported at 2017-Jul-21 01:50 UTC. Time now 2017-Jul-22 16:44 UTC.
Position N 48°06' W 004°20'.

Length 16 m.

Type: Fishing. MMSI: 227318010.

Date/timePositionNaut miles runAvg speedWind from/ knotsBaromVisibWave heightAir tempDewpointWater temp
2017-Jul-21 01:50N 48°06' W 004°20'0 0.3
2017-Jul-21 01:31N 48°06' W 004°19'0 0.0
2017-Jul-21 01:01N 48°06' W 004°19'1 1.7
2017-Jul-21 00:31N 48°07' W 004°20'4 7.8
2017-Jul-21 00:01N 48°08' W 004°26'5 9.1
2017-Jul-20 23:30N 48°09' W 004°32'4 8.0
2017-Jul-20 23:00N 48°13' W 004°35'3 5.8
2017-Jul-20 22:31N 48°14' W 004°39'2 4.0
2017-Jul-20 22:01N 48°15' W 004°41'0 0.9
2017-Jul-20 21:30N 48°15' W 004°42'1 1.1
2017-Jul-20 21:01N 48°15' W 004°42'3 6.9
2017-Jul-20 20:30N 48°15' W 004°47'3 5.5
2017-Jul-20 20:00N 48°13' W 004°44'4 8.1
2017-Jul-20 19:30N 48°11' W 004°39'5 8.8
2017-Jul-20 19:00N 48°09' W 004°33'4 9.0
2017-Jul-20 18:30N 48°08' W 004°26'4 9.0
2017-Jul-20 18:01N 48°06' W 004°20'1 0.0
2017-Jul-19 23:35N 48°06' W 004°19'0 0.0
2017-Jul-19 23:31N 48°06' W 004°19'4 7.7
2017-Jul-19 23:01N 48°09' W 004°22'4 8.8
2017-Jul-19 22:31N 48°13' W 004°26'4 7.3
2017-Jul-19 22:01N 48°11' W 004°30'4 7.1
2017-Jul-19 21:31N 48°10' W 004°35'3 5.2
2017-Jul-19 21:00N 48°10' W 004°39'3 6.6
2017-Jul-19 20:30N 48°07' W 004°39'3 5.4
2017-Jul-19 20:00N 48°05' W 004°36'4 8.1
2017-Jul-19 19:31N 48°06' W 004°30'4 8.4
2017-Jul-19 19:01N 48°07' W 004°24'3 6.8
2017-Jul-19 18:30N 48°06' W 004°19'0 0.0
2017-Jul-19 16:01N 48°06' W 004°19'0 0.0
2017-Jul-19 16:00N 48°06' W 004°19'0 0.0
2017-Jul-19 15:30N 48°06' W 004°19'0 0.0
2017-Jul-19 15:00N 48°06' W 004°19'0 0.0
2017-Jul-19 14:30N 48°06' W 004°19'0 0.0
2017-Jul-19 14:00N 48°06' W 004°19'0 0.0
2017-Jul-19 13:30N 48°06' W 004°19'0 0.0
2017-Jul-19 13:00N 48°06' W 004°19'0 0.0
2017-Jul-19 12:30N 48°06' W 004°19'0 0.0
2017-Jul-19 06:13N 48°06' W 004°19'0 0.1
2017-Jul-19 06:00N 48°06' W 004°19'0 0.0
2017-Jul-19 05:30N 48°06' W 004°19'0 0.0
2017-Jul-19 05:00N 48°06' W 004°19'2 4.1
2017-Jul-19 04:30N 48°07' W 004°22'5 9.1
2017-Jul-19 04:00N 48°08' W 004°29'4 8.7
2017-Jul-19 03:31N 48°10' W 004°35'4 8.7
2017-Jul-19 03:00N 48°13' W 004°40'3 6.5
2017-Jul-19 02:31N 48°16' W 004°42'0 0.7
2017-Jul-19 02:01N 48°16' W 004°42'0 0.8
2017-Jul-19 01:31N 48°16' W 004°42'0 0.3
2017-Jul-19 01:00N 48°16' W 004°43'1 1.9
2017-Jul-19 00:30N 48°15' W 004°41'1 2.0
2017-Jul-19 00:00N 48°14' W 004°41'1 1.8
2017-Jul-18 23:31N 48°14' W 004°40'0 0.4
2017-Jul-18 23:00N 48°14' W 004°40'2 3.1
2017-Jul-18 22:30N 48°13' W 004°38'3 6.9
2017-Jul-18 22:01N 48°11' W 004°43'5 9.3
2017-Jul-18 21:30N 48°06' W 004°45'611.1
2017-Jul-18 21:00N 48°01' W 004°48'3 6.4
2017-Jul-18 20:30N 48°01' W 004°53'4 8.7
2017-Jul-18 20:00N 47°59' W 004°47'5 9.8
2017-Jul-18 19:30N 47°56' W 004°41'6 9.9
2017-Jul-18 18:53N 47°53' W 004°33'8 8.5
2017-Jul-18 17:53N 47°49' W 004°23'0 0.0
2017-Jul-18 08:39N 47°49' W 004°23'0 0.0
2017-Jul-18 05:44N 47°49' W 004°23'3 6.1
2017-Jul-18 05:18N 47°50' W 004°27'3 8.1
2017-Jul-18 04:58N 47°51' W 004°30'4 8.2
2017-Jul-18 04:27N 47°53' W 004°36'4 8.6
2017-Jul-18 04:00N 47°55' W 004°40'4 8.7
2017-Jul-18 03:30N 47°57' W 004°46'4 8.8
2017-Jul-18 03:01N 47°60' W 004°51'2 4.8
2017-Jul-18 02:31N 48°01' W 004°54'1 1.4
2017-Jul-18 02:01N 48°01' W 004°53'0 0.9
2017-Jul-18 01:30N 48°01' W 004°53'1 1.9
2017-Jul-18 01:00N 48°01' W 004°51'0 0.7
2017-Jul-18 00:31N 48°02' W 004°52'2 4.0
2017-Jul-18 00:00N 48°00' W 004°50'2 4.3
2017-Jul-17 23:26N 47°58' W 004°48'0 1.0
2017-Jul-17 22:59N 47°58' W 004°47'4 8.0
2017-Jul-17 22:29N 47°57' W 004°41'10 8.5
2017-Jul-17 21:21N 47°56' W 004°27'3 7.3
2017-Jul-17 21:00N 47°55' W 004°24'2 2.6
2017-Jul-17 20:24N 47°53' W 004°24'5 5.4
2017-Jul-17 19:33N 47°49' W 004°23'0 0.0
2017-Jul-17 06:33N 47°49' W 004°23'0 0.1
2017-Jul-17 06:05N 47°49' W 004°23'0 0.0
2017-Jul-17 05:50N 47°49' W 004°23'3 4.4
2017-Jul-17 05:11N 47°51' W 004°25'2 8.9
2017-Jul-17 05:00N 47°53' W 004°26'4 8.9
2017-Jul-17 04:30N 47°57' W 004°28'1 1.8
2017-Jul-17 03:59N 47°58' W 004°28'3 4.5
2017-Jul-17 03:24N 47°56' W 004°26'2 6.4
2017-Jul-17 03:00N 47°54' W 004°23'4 8.0
2017-Jul-17 02:30N 47°57' W 004°27'4 6.2
2017-Jul-17 01:55N 47°57' W 004°33'4 6.8
2017-Jul-17 01:21N 47°55' W 004°29'7 6.5
2017-Jul-17 00:16N 47°49' W 004°23'0 0.8
2017-Jul-16 23:50N 47°49' W 004°23'1 0.5
2017-Jul-16 22:04N 47°50' W 004°23'1 9.3
2017-Jul-16 21:56N 47°51' W 004°22'3 8.1
2017-Jul-16 21:30N 47°54' W 004°24'1 1.2
2017-Jul-16 21:00N 47°55' W 004°24'0 0.3
2017-Jul-16 20:29N 47°55' W 004°24'1 2.2
2017-Jul-16 19:59N 47°54' W 004°24'5 4.1
2017-Jul-16 18:48N 47°49' W 004°23'  
2017-Jul-13 07:48N 47°49' W 004°23'0 0.0
2017-Jul-13 07:23N 47°49' W 004°23'0 0.0
2017-Jul-13 06:57N 47°49' W 004°23'1 0.5
2017-Jul-13 05:49N 47°48' W 004°23'3 9.1
2017-Jul-13 05:30N 47°51' W 004°25'5 9.3
2017-Jul-13 05:00N 47°55' W 004°27'3 6.4
2017-Jul-13 04:30N 47°58' W 004°30'0 0.2
2017-Jul-13 03:54N 47°58' W 004°30'0 0.3
2017-Jul-13 03:30N 47°58' W 004°30'1 1.5
2017-Jul-13 02:53N 47°58' W 004°28'7 6.9
2017-Jul-13 01:48N 47°52' W 004°23'3 7.5
2017-Jul-13 01:27N 47°54' W 004°25'1 2.9
2017-Jul-13 00:58N 47°53' W 004°23'4 6.1
2017-Jul-13 00:23N 47°50' W 004°23'1 1.1
2017-Jul-12 23:54N 47°50' W 004°23'0 0.7
2017-Jul-12 23:27N 47°50' W 004°23'4 7.7
2017-Jul-12 22:53N 47°52' W 004°29'2 5.6
2017-Jul-12 22:28N 47°54' W 004°30'4 8.7
2017-Jul-12 22:00N 47°57' W 004°34'3 3.2
2017-Jul-12 21:13N 47°58' W 004°31'0 1.3
2017-Jul-12 21:00N 47°58' W 004°31'8 6.5
2017-Jul-12 19:43N 47°51' W 004°23'2 2.3
2017-Jul-12 18:48N 47°49' W 004°23'0 0.0
2017-Jul-11 06:58N 47°49' W 004°23'4 3.4
2017-Jul-11 05:48N 47°45' W 004°20'17 8.3
2017-Jul-11 03:45N 47°38' W 003°57'2 8.5
2017-Jul-11 03:30N 47°38' W 003°54'4 8.7
2017-Jul-11 03:00N 47°36' W 003°48'4 8.6
2017-Jul-11 02:30N 47°35' W 003°42'4 8.9
2017-Jul-11 02:00N 47°33' W 003°36'  
Track history (hours):
 
Tides and Currents Weather Stations Pressure Air Temp Water Temp Dewpoint Dewpoint Depression Visibility Wind Speed Wind Dir Waves Ship Positions

La Sardane

Last reported at 2017-Jul-21 01:50 UTC. Time now 2017-Jul-22 16:44 UTC.
Position N 48°06' W 004°20'.

Length 16 m.

Type: Fishing. MMSI: 227318010.

Date/timePositionNaut miles runAvg speedWind from/ knotsBaromVisibWave heightAir tempDewpointWater temp
2017-Jul-21 01:50N 48°06' W 004°20'0 0.3
2017-Jul-21 01:31N 48°06' W 004°19'0 0.0
2017-Jul-21 01:01N 48°06' W 004°19'1 1.7
2017-Jul-21 00:31N 48°07' W 004°20'4 7.8
2017-Jul-21 00:01N 48°08' W 004°26'5 9.1
2017-Jul-20 23:30N 48°09' W 004°32'4 8.0
2017-Jul-20 23:00N 48°13' W 004°35'3 5.8
2017-Jul-20 22:31N 48°14' W 004°39'2 4.0
2017-Jul-20 22:01N 48°15' W 004°41'0 0.9
2017-Jul-20 21:30N 48°15' W 004°42'1 1.1
2017-Jul-20 21:01N 48°15' W 004°42'3 6.9
2017-Jul-20 20:30N 48°15' W 004°47'3 5.5
2017-Jul-20 20:00N 48°13' W 004°44'4 8.1
2017-Jul-20 19:30N 48°11' W 004°39'5 8.8
2017-Jul-20 19:00N 48°09' W 004°33'4 9.0
2017-Jul-20 18:30N 48°08' W 004°26'4 9.0
2017-Jul-20 18:01N 48°06' W 004°20'1 0.0
2017-Jul-19 23:35N 48°06' W 004°19'0 0.0
2017-Jul-19 23:31N 48°06' W 004°19'4 7.7
2017-Jul-19 23:01N 48°09' W 004°22'4 8.8
2017-Jul-19 22:31N 48°13' W 004°26'4 7.3
2017-Jul-19 22:01N 48°11' W 004°30'4 7.1
2017-Jul-19 21:31N 48°10' W 004°35'3 5.2
2017-Jul-19 21:00N 48°10' W 004°39'3 6.6
2017-Jul-19 20:30N 48°07' W 004°39'3 5.4
2017-Jul-19 20:00N 48°05' W 004°36'4 8.1
2017-Jul-19 19:31N 48°06' W 004°30'4 8.4
2017-Jul-19 19:01N 48°07' W 004°24'3 6.8
2017-Jul-19 18:30N 48°06' W 004°19'0 0.0
2017-Jul-19 16:01N 48°06' W 004°19'0 0.0
2017-Jul-19 16:00N 48°06' W 004°19'0 0.0
2017-Jul-19 15:30N 48°06' W 004°19'0 0.0
2017-Jul-19 15:00N 48°06' W 004°19'0 0.0
2017-Jul-19 14:30N 48°06' W 004°19'0 0.0
2017-Jul-19 14:00N 48°06' W 004°19'0 0.0
2017-Jul-19 13:30N 48°06' W 004°19'0 0.0
2017-Jul-19 13:00N 48°06' W 004°19'0 0.0
2017-Jul-19 12:30N 48°06' W 004°19'0 0.0
2017-Jul-19 06:13N 48°06' W 004°19'0 0.1
2017-Jul-19 06:00N 48°06' W 004°19'0 0.0
2017-Jul-19 05:30N 48°06' W 004°19'0 0.0
2017-Jul-19 05:00N 48°06' W 004°19'2 4.1
2017-Jul-19 04:30N 48°07' W 004°22'5 9.1
2017-Jul-19 04:00N 48°08' W 004°29'4 8.7
2017-Jul-19 03:31N 48°10' W 004°35'4 8.7
2017-Jul-19 03:00N 48°13' W 004°40'3 6.5
2017-Jul-19 02:31N 48°16' W 004°42'0 0.7
2017-Jul-19 02:01N 48°16' W 004°42'0 0.8
2017-Jul-19 01:31N 48°16' W 004°42'0 0.3
2017-Jul-19 01:00N 48°16' W 004°43'1 1.9
2017-Jul-19 00:30N 48°15' W 004°41'1 2.0
2017-Jul-19 00:00N 48°14' W 004°41'1 1.8
2017-Jul-18 23:31N 48°14' W 004°40'0 0.4
2017-Jul-18 23:00N 48°14' W 004°40'2 3.1
2017-Jul-18 22:30N 48°13' W 004°38'3 6.9
2017-Jul-18 22:01N 48°11' W 004°43'5 9.3
2017-Jul-18 21:30N 48°06' W 004°45'611.1
2017-Jul-18 21:00N 48°01' W 004°48'3 6.4
2017-Jul-18 20:30N 48°01' W 004°53'4 8.7
2017-Jul-18 20:00N 47°59' W 004°47'5 9.8
2017-Jul-18 19:30N 47°56' W 004°41'6 9.9
2017-Jul-18 18:53N 47°53' W 004°33'8 8.5
2017-Jul-18 17:53N 47°49' W 004°23'0 0.0
2017-Jul-18 08:39N 47°49' W 004°23'0 0.0
2017-Jul-18 05:44N 47°49' W 004°23'3 6.1
2017-Jul-18 05:18N 47°50' W 004°27'3 8.1
2017-Jul-18 04:58N 47°51' W 004°30'4 8.2
2017-Jul-18 04:27N 47°53' W 004°36'4 8.6
2017-Jul-18 04:00N 47°55' W 004°40'4 8.7
2017-Jul-18 03:30N 47°57' W 004°46'4 8.8
2017-Jul-18 03:01N 47°60' W 004°51'2 4.8
2017-Jul-18 02:31N 48°01' W 004°54'1 1.4
2017-Jul-18 02:01N 48°01' W 004°53'0 0.9
2017-Jul-18 01:30N 48°01' W 004°53'1 1.9
2017-Jul-18 01:00N 48°01' W 004°51'0 0.7
2017-Jul-18 00:31N 48°02' W 004°52'2 4.0
2017-Jul-18 00:00N 48°00' W 004°50'2 4.3
2017-Jul-17 23:26N 47°58' W 004°48'0 1.0
2017-Jul-17 22:59N 47°58' W 004°47'4 8.0
2017-Jul-17 22:29N 47°57' W 004°41'10 8.5
2017-Jul-17 21:21N 47°56' W 004°27'3 7.3
2017-Jul-17 21:00N 47°55' W 004°24'2 2.6
2017-Jul-17 20:24N 47°53' W 004°24'5 5.4
2017-Jul-17 19:33N 47°49' W 004°23'0 0.0
2017-Jul-17 06:33N 47°49' W 004°23'0 0.1
2017-Jul-17 06:05N 47°49' W 004°23'0 0.0
2017-Jul-17 05:50N 47°49' W 004°23'3 4.4
2017-Jul-17 05:11N 47°51' W 004°25'2 8.9
2017-Jul-17 05:00N 47°53' W 004°26'4 8.9
2017-Jul-17 04:30N 47°57' W 004°28'1 1.8
2017-Jul-17 03:59N 47°58' W 004°28'3 4.5
2017-Jul-17 03:24N 47°56' W 004°26'2 6.4
2017-Jul-17 03:00N 47°54' W 004°23'4 8.0
2017-Jul-17 02:30N 47°57' W 004°27'4 6.2
2017-Jul-17 01:55N 47°57' W 004°33'4 6.8
2017-Jul-17 01:21N 47°55' W 004°29'7 6.5
2017-Jul-17 00:16N 47°49' W 004°23'0 0.8
2017-Jul-16 23:50N 47°49' W 004°23'1 0.5
2017-Jul-16 22:04N 47°50' W 004°23'1 9.3
2017-Jul-16 21:56N 47°51' W 004°22'3 8.1
2017-Jul-16 21:30N 47°54' W 004°24'1 1.2
2017-Jul-16 21:00N 47°55' W 004°24'0 0.3
2017-Jul-16 20:29N 47°55' W 004°24'1 2.2
2017-Jul-16 19:59N 47°54' W 004°24'5 4.1
2017-Jul-16 18:48N 47°49' W 004°23'  
2017-Jul-13 07:48N 47°49' W 004°23'0 0.0
2017-Jul-13 07:23N 47°49' W 004°23'0 0.0
2017-Jul-13 06:57N 47°49' W 004°23'1 0.5
2017-Jul-13 05:49N 47°48' W 004°23'3 9.1
2017-Jul-13 05:30N 47°51' W 004°25'5 9.3
2017-Jul-13 05:00N 47°55' W 004°27'3 6.4
2017-Jul-13 04:30N 47°58' W 004°30'0 0.2
2017-Jul-13 03:54N 47°58' W 004°30'0 0.3
2017-Jul-13 03:30N 47°58' W 004°30'1 1.5
2017-Jul-13 02:53N 47°58' W 004°28'7 6.9
2017-Jul-13 01:48N 47°52' W 004°23'3 7.5
2017-Jul-13 01:27N 47°54' W 004°25'1 2.9
2017-Jul-13 00:58N 47°53' W 004°23'4 6.1
2017-Jul-13 00:23N 47°50' W 004°23'1 1.1
2017-Jul-12 23:54N 47°50' W 004°23'0 0.7
2017-Jul-12 23:27N 47°50' W 004°23'4 7.7
2017-Jul-12 22:53N 47°52' W 004°29'2 5.6
2017-Jul-12 22:28N 47°54' W 004°30'4 8.7
2017-Jul-12 22:00N 47°57' W 004°34'3 3.2
2017-Jul-12 21:13N 47°58' W 004°31'0 1.3
2017-Jul-12 21:00N 47°58' W 004°31'8 6.5
2017-Jul-12 19:43N 47°51' W 004°23'2 2.3
2017-Jul-12 18:48N 47°49' W 004°23'0 0.0
2017-Jul-11 06:58N 47°49' W 004°23'4 3.4
2017-Jul-11 05:48N 47°45' W 004°20'17 8.3
2017-Jul-11 03:45N 47°38' W 003°57'2 8.5
2017-Jul-11 03:30N 47°38' W 003°54'4 8.7
2017-Jul-11 03:00N 47°36' W 003°48'4 8.6
2017-Jul-11 02:30N 47°35' W 003°42'4 8.9
2017-Jul-11 02:00N 47°33' W 003°36'  

Dump ship's entire track history